createdAt,value
2022-10-29T00:00:52.483Z,99.90
2022-10-29T00:03:21.154Z,99.90
2022-10-29T00:06:04.680Z,99.90
2022-10-29T00:08:34.816Z,99.90
2022-10-29T00:11:09.749Z,99.90
2022-10-29T00:13:38.725Z,99.90
2022-10-29T00:16:08.743Z,99.90
2022-10-29T00:18:36.725Z,99.90
2022-10-29T00:21:08.115Z,99.90
2022-10-29T00:23:36.097Z,99.90
2022-10-29T00:26:04.935Z,99.90
2022-10-29T00:28:33.112Z,99.90
2022-10-29T00:31:05.024Z,99.90
2022-10-29T00:33:33.220Z,99.90
2022-10-29T00:36:02.880Z,99.90
2022-10-29T00:38:34.395Z,99.90
2022-10-29T00:41:02.570Z,99.90
2022-10-29T00:43:30.951Z,99.90
2022-10-29T00:46:01.590Z,99.90
2022-10-29T00:48:35.662Z,99.90
2022-10-29T00:51:06.338Z,99.90
2022-10-29T00:53:40.194Z,99.90
2022-10-29T00:56:08.856Z,99.90
2022-10-29T00:58:37.098Z,99.90
2022-10-29T01:01:05.780Z,99.90
2022-10-29T01:03:33.859Z,99.90
2022-10-29T01:06:03.182Z,99.90
2022-10-29T01:08:31.360Z,99.90
2022-10-29T01:11:07.683Z,99.90
2022-10-29T01:13:51.333Z,99.90
2022-10-29T01:16:24.353Z,99.90
2022-10-29T01:19:05.882Z,99.90
2022-10-29T01:21:46.249Z,99.90
2022-10-29T01:24:47.110Z,99.90
2022-10-29T01:27:40.792Z,99.90
2022-10-29T01:30:15.367Z,99.90
2022-10-29T01:32:54.207Z,99.90
2022-10-29T01:35:30.697Z,99.90
2022-10-29T01:38:10.897Z,99.90
2022-10-29T01:40:46.356Z,99.90
2022-10-29T01:45:58.491Z,99.90
2022-10-29T01:48:33.415Z,99.90
2022-10-29T01:51:05.769Z,99.90
2022-10-29T01:53:37.171Z,99.90
2022-10-29T01:56:05.515Z,99.90
2022-10-29T01:58:35.119Z,99.90
2022-10-29T02:01:16.326Z,99.90
2022-10-29T02:03:57.069Z,99.90
2022-10-29T02:06:34.458Z,99.90
2022-10-29T02:09:10.618Z,99.90
2022-10-29T02:11:45.664Z,99.90
2022-10-29T02:14:18.162Z,99.90
2022-10-29T02:16:46.250Z,99.90
2022-10-29T02:19:15.624Z,99.90
2022-10-29T02:21:45.104Z,99.90
2022-10-29T02:24:13.395Z,99.90
2022-10-29T02:26:41.343Z,99.90
2022-10-29T02:29:09.304Z,99.90
2022-10-29T02:31:37.394Z,99.90
2022-10-29T02:34:05.339Z,99.90
2022-10-29T02:36:34.634Z,99.90
2022-10-29T02:39:02.559Z,99.90
2022-10-29T02:41:30.466Z,99.90
2022-10-29T02:43:58.405Z,99.90
2022-10-29T02:46:26.715Z,99.90
2022-10-29T02:48:54.588Z,99.90
2022-10-29T02:51:22.564Z,99.90
2022-10-29T02:53:51.871Z,99.90
2022-10-29T02:56:19.757Z,99.90
2022-10-29T02:58:47.705Z,99.90
2022-10-29T03:01:15.687Z,99.90
2022-10-29T03:03:43.642Z,99.90
2022-10-29T03:06:14.330Z,99.90
2022-10-29T03:08:42.406Z,99.90
2022-10-29T03:11:12.151Z,99.90
2022-10-29T03:13:40.498Z,99.90
2022-10-29T03:16:08.463Z,99.90
2022-10-29T03:18:36.514Z,99.90
2022-10-29T03:21:04.525Z,99.90
2022-10-29T03:23:32.520Z,99.90
2022-10-29T03:26:00.453Z,99.90
2022-10-29T03:28:30.659Z,99.90
2022-10-29T03:30:58.901Z,99.90
2022-10-29T03:33:27.509Z,99.90
2022-10-29T03:35:59.280Z,99.90
2022-10-29T03:38:27.701Z,99.90
2022-10-29T03:40:55.888Z,99.90
2022-10-29T03:43:24.178Z,99.90
2022-10-29T03:45:54.037Z,99.90
2022-10-29T03:48:22.379Z,99.90
2022-10-29T03:50:56.336Z,99.90
2022-10-29T03:53:24.899Z,99.90
2022-10-29T03:55:53.341Z,99.90
2022-10-29T03:58:21.677Z,99.90
2022-10-29T04:00:56.877Z,99.90
2022-10-29T04:03:25.421Z,99.90
2022-10-29T04:05:53.375Z,99.90
2022-10-29T04:08:22.148Z,99.90
2022-10-29T04:10:51.770Z,99.90
2022-10-29T04:13:20.360Z,99.90
2022-10-29T04:15:48.397Z,99.90
2022-10-29T04:18:17.694Z,99.90
2022-10-29T04:22:26.933Z,99.90
2022-10-29T04:29:09.478Z,99.90
2022-10-29T04:31:38.067Z,99.90
2022-10-29T04:34:07.403Z,99.90
2022-10-29T04:36:35.368Z,99.90
2022-10-29T04:39:04.051Z,99.90
2022-10-29T04:41:32.055Z,99.90
2022-10-29T04:44:00.250Z,99.90
2022-10-29T04:46:28.227Z,99.90
2022-10-29T04:48:56.487Z,99.90
2022-10-29T04:51:26.953Z,99.90
2022-10-29T04:53:55.059Z,99.90
2022-10-29T04:56:22.997Z,99.90
2022-10-29T04:58:52.835Z,99.90
2022-10-29T05:01:20.999Z,99.90
2022-10-29T05:03:49.118Z,99.90
2022-10-29T05:06:17.048Z,99.90
2022-10-29T05:08:46.365Z,99.90
2022-10-29T05:11:14.295Z,99.90
2022-10-29T05:13:42.480Z,99.90
2022-10-29T05:16:10.428Z,99.90
2022-10-29T05:18:39.089Z,99.90
2022-10-29T05:21:07.185Z,99.90
2022-10-29T05:23:35.333Z,99.90
2022-10-29T05:26:04.735Z,99.90
2022-10-29T05:28:32.793Z,99.90
2022-10-29T05:31:02.444Z,99.90
2022-10-29T05:33:30.599Z,99.90
2022-10-29T05:36:00.917Z,99.90
2022-10-29T05:38:28.981Z,99.90
2022-10-29T05:40:59.122Z,99.90
2022-10-29T05:43:28.742Z,99.90
2022-10-29T05:45:56.682Z,99.90
2022-10-29T05:48:24.626Z,99.90
2022-10-29T05:50:52.562Z,99.90
2022-10-29T05:53:20.469Z,99.90
2022-10-29T05:55:48.386Z,99.90
2022-10-29T05:58:16.462Z,99.90
2022-10-29T06:00:46.618Z,99.90
2022-10-29T06:03:15.904Z,99.90
2022-10-29T06:05:44.578Z,99.90
2022-10-29T06:08:12.507Z,99.90
2022-10-29T06:10:40.493Z,99.90
2022-10-29T06:13:12.855Z,99.90
2022-10-29T06:15:40.817Z,99.90
2022-10-29T06:18:10.360Z,99.90
2022-10-29T06:20:39.437Z,99.90
2022-10-29T06:23:07.956Z,99.90
2022-10-29T06:25:36.230Z,99.90
2022-10-29T06:28:05.839Z,99.90
2022-10-29T06:30:35.852Z,99.90
2022-10-29T06:33:04.559Z,99.90
2022-10-29T06:38:07.777Z,99.90
2022-10-29T06:40:40.465Z,99.90
2022-10-29T06:43:11.462Z,99.90
2022-10-29T06:45:39.562Z,99.90
2022-10-29T06:48:08.142Z,99.90
2022-10-29T06:50:37.566Z,99.90
2022-10-29T06:53:07.840Z,99.90
2022-10-29T06:55:36.157Z,99.90
2022-10-29T06:58:06.105Z,99.90
2022-10-29T07:00:35.320Z,99.90
2022-10-29T07:03:04.875Z,99.90
2022-10-29T07:05:33.783Z,99.90
2022-10-29T07:08:03.312Z,99.90
2022-10-29T07:10:33.090Z,99.90
2022-10-29T07:13:01.594Z,99.90
2022-10-29T07:15:30.876Z,99.90
2022-10-29T07:18:00.857Z,99.90
2022-10-29T07:20:30.217Z,99.90
2022-10-29T07:22:59.301Z,99.90
2022-10-29T07:25:29.242Z,99.90
2022-10-29T07:28:03.118Z,99.90
2022-10-29T07:30:31.197Z,99.90
2022-10-29T07:32:59.116Z,99.90
2022-10-29T07:35:27.085Z,99.90
2022-10-29T07:38:03.789Z,99.90
2022-10-29T07:40:39.177Z,99.90
2022-10-29T07:43:07.347Z,99.90
2022-10-29T07:45:35.353Z,99.90
2022-10-29T07:48:05.271Z,99.90
2022-10-29T07:50:33.352Z,99.90
2022-10-29T07:53:01.464Z,99.90
2022-10-29T07:58:04.844Z,99.90
2022-10-29T08:00:34.332Z,99.90
2022-10-29T08:03:02.405Z,99.90
2022-10-29T08:05:31.951Z,99.90
2022-10-29T08:08:00.444Z,99.90
2022-10-29T08:10:30.689Z,99.90
2022-10-29T08:13:01.131Z,99.90
2022-10-29T08:15:32.544Z,99.90
2022-10-29T08:18:00.623Z,99.90
2022-10-29T08:20:30.142Z,99.90
2022-10-29T08:23:01.245Z,99.90
2022-10-29T08:25:29.910Z,99.90
2022-10-29T08:28:02.471Z,99.90
2022-10-29T08:30:32.646Z,99.90
2022-10-29T08:33:01.291Z,99.90
2022-10-29T08:35:30.153Z,99.90
2022-10-29T08:37:58.755Z,99.90
2022-10-29T08:40:31.696Z,99.90
2022-10-29T08:43:43.227Z,99.90
2022-10-29T08:46:20.493Z,99.90
2022-10-29T08:48:52.790Z,99.90
2022-10-29T08:51:24.793Z,99.90
2022-10-29T08:54:24.926Z,99.90
2022-10-29T08:56:48.313Z,99.90
2022-10-29T08:59:19.401Z,99.90
2022-10-29T09:01:49.327Z,99.90
2022-10-29T09:04:25.753Z,99.90
2022-10-29T09:07:15.740Z,99.90
2022-10-29T09:09:47.882Z,99.90
2022-10-29T09:12:41.675Z,99.90
2022-10-29T09:15:57.200Z,99.90
2022-10-29T09:18:48.929Z,99.90
2022-10-29T09:21:30.080Z,99.90
2022-10-29T09:24:05.087Z,99.90
2022-10-29T09:26:41.748Z,99.90
2022-10-29T09:29:33.298Z,99.90
2022-10-29T09:32:04.157Z,99.90
2022-10-29T09:34:39.654Z,99.90
2022-10-29T09:37:16.091Z,99.90
2022-10-29T09:39:46.114Z,99.90
2022-10-29T09:42:18.063Z,96.60
2022-10-29T09:44:52.675Z,94.10
2022-10-29T09:47:33.319Z,90.60
2022-10-29T09:50:12.063Z,86.50
2022-10-29T09:52:42.923Z,86.40
2022-10-29T09:55:19.747Z,87.40
2022-10-29T09:57:49.631Z,86.10
2022-10-29T10:00:21.066Z,84.50
2022-10-29T10:02:55.099Z,79.00
2022-10-29T10:05:28.363Z,78.50
2022-10-29T10:08:08.710Z,76.00
2022-10-29T10:10:39.368Z,73.70
2022-10-29T10:13:17.127Z,70.30
2022-10-29T10:15:53.178Z,67.40
2022-10-29T10:18:23.468Z,69.00
2022-10-29T10:21:07.753Z,67.40
2022-10-29T10:23:43.614Z,67.30
2022-10-29T10:26:30.837Z,64.90
2022-10-29T10:29:12.848Z,63.60
2022-10-29T10:31:41.316Z,65.80
2022-10-29T10:34:16.119Z,63.30
2022-10-29T10:36:48.332Z,65.20
2022-10-29T10:39:27.224Z,66.40
2022-10-29T10:41:56.547Z,65.90
2022-10-29T10:44:24.980Z,66.60
2022-10-29T10:46:55.763Z,66.60
2022-10-29T10:49:31.699Z,67.20
2022-10-29T10:52:03.460Z,67.40
2022-10-29T10:54:36.886Z,68.70
2022-10-29T10:57:19.084Z,68.40
2022-10-29T10:59:54.919Z,69.50
2022-10-29T11:02:31.505Z,69.80
2022-10-29T11:05:07.734Z,69.70
2022-10-29T11:07:41.537Z,70.20
2022-10-29T11:10:14.429Z,69.30
2022-10-29T11:12:47.863Z,68.30
2022-10-29T11:15:23.154Z,67.80
2022-10-29T11:17:56.094Z,70.10
2022-10-29T11:20:27.522Z,69.20
2022-10-29T11:23:06.038Z,69.30
2022-10-29T11:25:41.523Z,65.80
2022-10-29T11:28:21.813Z,65.80
2022-10-29T11:30:57.203Z,67.20
2022-10-29T11:33:36.368Z,69.20
2022-10-29T11:36:12.808Z,67.70
2022-10-29T11:38:47.729Z,68.70
2022-10-29T11:41:27.213Z,69.50
2022-10-29T11:43:55.987Z,65.60
2022-10-29T11:46:40.288Z,65.70
2022-10-29T11:49:21.442Z,65.80
2022-10-29T11:51:59.029Z,66.00
2022-10-29T11:54:43.361Z,68.30
2022-10-29T11:57:17.563Z,66.00
2022-10-29T12:00:02.888Z,68.40
2022-10-29T12:03:09.314Z,69.90
2022-10-29T12:05:43.340Z,68.80
2022-10-29T12:08:26.706Z,71.20
2022-10-29T12:11:02.779Z,71.80
2022-10-29T12:13:43.612Z,70.50
2022-10-29T12:16:32.419Z,70.00
2022-10-29T12:19:10.691Z,70.80
2022-10-29T12:21:47.496Z,70.80
2022-10-29T12:24:32.363Z,71.40
2022-10-29T12:27:06.916Z,71.60
2022-10-29T12:29:44.223Z,74.20
2022-10-29T12:32:21.933Z,73.40
2022-10-29T12:34:56.777Z,73.50
2022-10-29T12:37:33.967Z,73.90
2022-10-29T12:40:07.366Z,74.80
2022-10-29T12:42:37.123Z,73.40
2022-10-29T12:45:23.875Z,73.20
2022-10-29T12:48:02.607Z,73.10
2022-10-29T12:50:40.084Z,76.90
2022-10-29T12:53:22.034Z,75.40
2022-10-29T12:55:50.973Z,72.90
2022-10-29T12:58:49.361Z,73.90
2022-10-29T13:04:35.130Z,73.90
2022-10-29T13:07:24.021Z,73.20
2022-10-29T13:10:29.658Z,74.20
2022-10-29T13:13:05.501Z,74.80
2022-10-29T13:15:38.674Z,77.70
2022-10-29T13:18:24.501Z,81.60
2022-10-29T13:20:54.046Z,81.40
2022-10-29T13:23:39.710Z,83.20
2022-10-29T13:26:08.986Z,84.20
2022-10-29T13:28:51.249Z,83.90
2022-10-29T13:31:53.825Z,84.00
2022-10-29T13:34:50.115Z,86.70
2022-10-29T13:37:53.634Z,88.10
2022-10-29T13:41:04.215Z,88.60
2022-10-29T13:43:33.291Z,89.10
2022-10-29T13:46:15.904Z,88.60
2022-10-29T13:48:46.766Z,90.00
2022-10-29T13:51:19.478Z,90.60
2022-10-29T13:53:53.477Z,90.70
2022-10-29T13:56:28.162Z,90.70
2022-10-29T13:58:58.937Z,90.90
2022-10-29T14:01:29.998Z,91.80
2022-10-29T14:04:06.421Z,91.50
2022-10-29T14:06:37.675Z,91.70
2022-10-29T14:09:15.525Z,91.90
2022-10-29T14:11:46.143Z,91.70
2022-10-29T14:14:25.972Z,91.60
2022-10-29T14:17:11.425Z,91.50
2022-10-29T14:19:44.828Z,91.40
2022-10-29T14:22:35.596Z,91.70
2022-10-29T14:25:19.973Z,91.60
2022-10-29T14:27:48.002Z,91.70
2022-10-29T14:30:21.086Z,91.70
2022-10-29T14:32:49.067Z,91.70
2022-10-29T14:35:18.548Z,91.50
2022-10-29T14:37:48.625Z,91.70
2022-10-29T14:40:20.899Z,91.80
2022-10-29T14:42:53.918Z,91.70
2022-10-29T14:45:25.778Z,92.10
2022-10-29T14:47:56.180Z,92.00
2022-10-29T14:50:27.647Z,91.70
2022-10-29T14:52:57.662Z,91.70
2022-10-29T14:55:29.422Z,91.70
2022-10-29T14:58:04.565Z,91.60
2022-10-29T15:00:35.786Z,92.10
2022-10-29T15:03:05.059Z,92.10
2022-10-29T15:05:36.658Z,92.30
2022-10-29T15:08:06.563Z,92.80
2022-10-29T15:10:46.833Z,93.40
2022-10-29T15:13:30.425Z,93.80
2022-10-29T15:16:00.065Z,93.80
2022-10-29T15:18:28.490Z,94.10
2022-10-29T15:20:58.170Z,94.70
2022-10-29T15:23:29.513Z,94.90
2022-10-29T15:26:02.857Z,95.10
2022-10-29T15:28:37.720Z,95.30
2022-10-29T15:31:06.288Z,96.00
2022-10-29T15:33:37.864Z,96.30
2022-10-29T15:36:07.841Z,96.90
2022-10-29T15:39:15.165Z,97.70
2022-10-29T15:41:49.943Z,98.40
2022-10-29T15:44:39.034Z,99.10
2022-10-29T15:47:28.715Z,99.00
2022-10-29T15:49:56.950Z,99.80
2022-10-29T15:52:31.665Z,99.90
2022-10-29T15:55:01.058Z,99.90
2022-10-29T15:57:31.444Z,99.90
2022-10-29T16:02:32.707Z,99.90
2022-10-29T16:05:00.760Z,99.90
2022-10-29T16:07:29.203Z,99.90
2022-10-29T16:10:00.538Z,99.90
2022-10-29T16:12:29.926Z,99.90
2022-10-29T16:14:57.975Z,99.90
2022-10-29T16:17:26.086Z,99.90
2022-10-29T16:19:54.106Z,99.90
2022-10-29T16:22:28.537Z,99.90
2022-10-29T16:24:57.015Z,99.90
2022-10-29T16:27:24.964Z,99.90
2022-10-29T16:29:54.285Z,99.90
2022-10-29T16:32:24.857Z,99.90
2022-10-29T16:34:53.183Z,99.90
2022-10-29T16:37:22.098Z,99.90
2022-10-29T16:39:50.039Z,99.90
2022-10-29T16:42:30.274Z,99.90
2022-10-29T16:44:59.714Z,99.90
2022-10-29T16:47:27.704Z,99.90
2022-10-29T16:49:55.740Z,99.90
2022-10-29T16:52:25.346Z,99.90
2022-10-29T16:54:57.114Z,99.90
2022-10-29T16:57:25.974Z,99.90
2022-10-29T16:59:55.067Z,99.90
2022-10-29T17:02:24.402Z,99.90
2022-10-29T17:04:52.373Z,99.90
2022-10-29T17:07:20.439Z,99.90
2022-10-29T17:09:48.443Z,99.90
2022-10-29T17:12:16.702Z,99.90
2022-10-29T17:14:44.725Z,99.90
2022-10-29T17:17:12.706Z,99.90
2022-10-29T17:19:42.006Z,99.90
2022-10-29T17:22:11.368Z,99.90
2022-10-29T17:24:39.915Z,99.90
2022-10-29T17:27:08.879Z,99.90
2022-10-29T17:29:37.036Z,99.90
2022-10-29T17:32:07.260Z,99.90
2022-10-29T17:34:35.530Z,99.90
2022-10-29T17:37:04.871Z,99.90
2022-10-29T17:39:32.947Z,99.90
2022-10-29T17:42:01.206Z,99.90
2022-10-29T17:44:29.290Z,99.90
2022-10-29T17:46:57.474Z,99.90
2022-10-29T17:49:26.212Z,99.90
2022-10-29T17:51:54.405Z,99.90
2022-10-29T17:54:23.957Z,99.90
2022-10-29T17:56:52.235Z,99.90
2022-10-29T17:59:20.342Z,99.90
2022-10-29T18:01:48.559Z,99.90
2022-10-29T18:04:16.619Z,99.90
2022-10-29T18:06:44.835Z,99.90
2022-10-29T18:09:15.877Z,99.90
2022-10-29T18:11:50.235Z,99.90
2022-10-29T18:14:18.302Z,99.90
2022-10-29T18:16:46.422Z,99.90
2022-10-29T18:19:16.456Z,99.90
2022-10-29T18:21:44.523Z,99.90
2022-10-29T18:24:12.897Z,99.90
2022-10-29T18:26:40.983Z,99.90
2022-10-29T18:29:13.189Z,99.90
2022-10-29T18:31:44.886Z,99.90
2022-10-29T18:34:15.032Z,99.90
2022-10-29T18:36:43.279Z,99.90
2022-10-29T18:39:11.653Z,99.90
2022-10-29T18:41:40.474Z,99.90
2022-10-29T18:44:12.129Z,99.90
2022-10-29T18:46:40.125Z,99.90
2022-10-29T18:49:08.060Z,99.90
2022-10-29T18:51:36.021Z,99.90
2022-10-29T18:54:04.004Z,99.90
2022-10-29T18:56:32.261Z,99.90
2022-10-29T18:59:01.596Z,99.90
2022-10-29T19:01:32.914Z,99.90
2022-10-29T19:04:03.064Z,99.90
2022-10-29T19:06:32.642Z,99.90
2022-10-29T19:09:04.301Z,99.90
2022-10-29T19:11:32.430Z,99.90
2022-10-29T19:14:02.626Z,99.90
2022-10-29T19:16:33.532Z,99.90
2022-10-29T19:21:38.830Z,99.90
2022-10-29T19:24:08.592Z,99.90
2022-10-29T19:26:37.509Z,99.90
2022-10-29T19:29:06.544Z,99.90
2022-10-29T19:31:36.714Z,99.90
2022-10-29T19:34:07.382Z,99.90
2022-10-29T19:36:36.894Z,99.90
2022-10-29T19:39:05.238Z,99.90
2022-10-29T19:41:33.842Z,99.90
2022-10-29T19:44:02.622Z,99.90
2022-10-29T19:46:31.322Z,99.90
2022-10-29T19:49:00.772Z,99.90
2022-10-29T19:51:28.853Z,99.90
2022-10-29T19:54:01.460Z,99.90
2022-10-29T19:56:29.488Z,99.90
2022-10-29T19:58:57.465Z,99.90
2022-10-29T20:01:25.549Z,99.90
2022-10-29T20:03:53.637Z,99.90
2022-10-29T20:06:22.895Z,99.90
2022-10-29T20:08:50.965Z,99.90
2022-10-29T20:11:18.948Z,99.90
2022-10-29T20:13:46.912Z,99.90
2022-10-29T20:16:17.843Z,99.90
2022-10-29T20:18:46.132Z,99.90
2022-10-29T20:21:14.697Z,99.90
2022-10-29T20:23:44.689Z,99.90
2022-10-29T20:26:13.176Z,99.90
2022-10-29T20:28:41.184Z,99.90
2022-10-29T20:31:29.777Z,99.90
2022-10-29T20:34:00.251Z,99.90
2022-10-29T20:36:33.734Z,99.90
2022-10-29T20:39:03.149Z,99.90
2022-10-29T20:41:31.217Z,99.90
2022-10-29T20:44:01.149Z,99.90
2022-10-29T20:46:31.036Z,99.90
2022-10-29T20:49:02.153Z,99.90
2022-10-29T20:51:30.288Z,99.90
2022-10-29T20:53:58.268Z,99.90
2022-10-29T20:56:28.551Z,99.90
2022-10-29T20:59:00.375Z,99.90
2022-10-29T21:01:29.224Z,99.90
2022-10-29T21:03:57.480Z,99.90
2022-10-29T21:06:25.996Z,99.90
2022-10-29T21:08:54.324Z,99.90
2022-10-29T21:11:23.667Z,99.90
2022-10-29T21:13:53.127Z,99.90
2022-10-29T21:16:26.456Z,99.90
2022-10-29T21:18:56.247Z,99.90
2022-10-29T21:21:24.610Z,99.90
2022-10-29T21:23:52.692Z,99.90
2022-10-29T21:26:22.706Z,99.90
2022-10-29T21:28:53.744Z,99.90
2022-10-29T21:31:26.213Z,99.90
2022-10-29T21:33:55.250Z,99.90
2022-10-29T21:36:23.712Z,99.90
2022-10-29T21:38:52.676Z,99.90
2022-10-29T21:41:20.892Z,99.90
2022-10-29T21:43:53.730Z,99.90
2022-10-29T21:46:23.139Z,99.90
2022-10-29T21:48:51.065Z,99.90
2022-10-29T21:51:19.144Z,99.90
2022-10-29T21:53:47.087Z,99.90
2022-10-29T21:56:16.120Z,99.90
2022-10-29T21:58:44.509Z,99.90
2022-10-29T22:01:14.151Z,99.90
2022-10-29T22:03:45.015Z,99.90
2022-10-29T22:06:14.602Z,99.90
2022-10-29T22:08:42.875Z,99.90
2022-10-29T22:11:12.212Z,99.90
2022-10-29T22:13:40.580Z,99.90
2022-10-29T22:16:10.017Z,99.90
2022-10-29T22:18:38.361Z,99.90
2022-10-29T22:21:11.481Z,99.90
2022-10-29T22:23:43.743Z,99.90
2022-10-29T22:26:11.827Z,99.90
2022-10-29T22:28:40.014Z,99.90
2022-10-29T22:31:08.608Z,99.90
2022-10-29T22:33:36.656Z,99.90
2022-10-29T22:36:06.276Z,99.90
2022-10-29T22:38:35.601Z,99.90
2022-10-29T22:41:07.736Z,99.90
2022-10-29T22:43:35.975Z,99.90
2022-10-29T22:46:05.606Z,99.90
2022-10-29T22:48:33.605Z,99.90
2022-10-29T22:51:04.001Z,99.90
2022-10-29T22:53:32.325Z,99.90
2022-10-29T22:56:03.009Z,99.90
2022-10-29T22:58:31.011Z,99.90
2022-10-29T23:01:03.379Z,99.90
2022-10-29T23:03:31.440Z,99.90
2022-10-29T23:05:59.727Z,99.90
2022-10-29T23:08:28.184Z,99.90
2022-10-29T23:10:56.666Z,99.90
2022-10-29T23:13:25.998Z,99.90
2022-10-29T23:15:54.427Z,99.90
2022-10-29T23:18:22.360Z,99.90
2022-10-29T23:20:57.967Z,99.90
2022-10-29T23:23:25.960Z,99.90
2022-10-29T23:25:57.688Z,99.90
2022-10-29T23:28:27.119Z,99.90
2022-10-29T23:30:55.279Z,99.90
2022-10-29T23:33:23.520Z,99.90
2022-10-29T23:35:51.567Z,99.90
2022-10-29T23:38:19.692Z,99.90
2022-10-29T23:40:48.996Z,99.90
2022-10-29T23:43:17.039Z,99.90
2022-10-29T23:45:46.445Z,99.90
2022-10-29T23:48:14.414Z,99.90
2022-10-29T23:50:42.747Z,99.90
2022-10-29T23:53:10.924Z,99.90
2022-10-29T23:55:39.021Z,99.90
2022-10-29T23:58:06.982Z,99.90
